Turkon Egypt — TCA3420 — position and weather

sailwx.info

Track history (hours):
 
Tides and Currents Weather Stations Pressure Air Temp Water Temp Dewpoint Dewpoint Depression Visibility Wind Speed Wind Dir Waves Ship Positions

Turkon Egypt

Last reported at 2017-Nov-18 04:14 UTC. Time now 2017-Nov-23 01:31 UTC.
Position N 40°55' E 028°41'.

Length 207 m; draft 9.4 m.

Type: Ship (hazmat cat A). MMSI: 271044070.

Date/timePositionNaut miles runAvg speedWind from/ knotsBaromVisibWave heightAir tempDewpointWater temp
2017-Nov-18 04:14N 40°55' E 028°41'2 6.4
2017-Nov-18 03:57N 40°55' E 028°44'3212.0
2017-Nov-18 01:18N 40°25' E 028°59'411.0
2017-Nov-18 00:58N 40°25' E 029°04'1 0.1
2017-Nov-17 12:43N 40°25' E 029°05'3 4.9
2017-Nov-17 12:13N 40°27' E 029°03'29 3.6
2017-Nov-17 04:13N 40°52' E 028°44'416.3
2017-Nov-17 03:59N 40°54' E 028°48'815.8
2017-Nov-17 03:28N 40°58' E 028°58'3 0.4
2017-Nov-16 19:40N 41°01' E 029°00'0 1.4
2017-Nov-16 19:30N 41°01' E 029°00'2 4.1
2017-Nov-16 19:00N 40°59' E 028°60'610.5
2017-Nov-16 18:28N 40°53' E 029°00'715.6
2017-Nov-16 18:00N 40°48' E 029°06'815.9
2017-Nov-16 17:30N 40°45' E 029°16'713.6
2017-Nov-16 17:00N 40°45' E 029°25'612.4
2017-Nov-16 16:30N 40°45' E 029°33'4 0.1
2017-Nov-15 10:53N 40°45' E 029°28'513.8
2017-Nov-15 10:30N 40°44' E 029°21'612.5
2017-Nov-15 10:01N 40°44' E 029°13'918.0
2017-Nov-15 09:30N 40°43' E 029°01'23214.1
2017-Nov-14 17:01N 37°50' E 025°43'017.3
2017-Nov-14 17:00N 37°50' E 025°43'1019.3
2017-Nov-14 16:30N 37°40' E 025°43'917.2
2017-Nov-14 16:00N 37°32' E 025°46'918.7
2017-Nov-14 15:30N 37°26' E 025°55'  
Track history (hours):
 
Tides and Currents Weather Stations Pressure Air Temp Water Temp Dewpoint Dewpoint Depression Visibility Wind Speed Wind Dir Waves Ship Positions

Turkon Egypt

Last reported at 2017-Nov-18 04:14 UTC. Time now 2017-Nov-23 01:31 UTC.
Position N 40°55' E 028°41'.

Length 207 m; draft 9.4 m.

Type: Ship (hazmat cat A). MMSI: 271044070.

Date/timePositionNaut miles runAvg speedWind from/ knotsBaromVisibWave heightAir tempDewpointWater temp
2017-Nov-18 04:14N 40°55' E 028°41'2 6.4
2017-Nov-18 03:57N 40°55' E 028°44'3212.0
2017-Nov-18 01:18N 40°25' E 028°59'411.0
2017-Nov-18 00:58N 40°25' E 029°04'1 0.1
2017-Nov-17 12:43N 40°25' E 029°05'3 4.9
2017-Nov-17 12:13N 40°27' E 029°03'29 3.6
2017-Nov-17 04:13N 40°52' E 028°44'416.3
2017-Nov-17 03:59N 40°54' E 028°48'815.8
2017-Nov-17 03:28N 40°58' E 028°58'3 0.4
2017-Nov-16 19:40N 41°01' E 029°00'0 1.4
2017-Nov-16 19:30N 41°01' E 029°00'2 4.1
2017-Nov-16 19:00N 40°59' E 028°60'610.5
2017-Nov-16 18:28N 40°53' E 029°00'715.6
2017-Nov-16 18:00N 40°48' E 029°06'815.9
2017-Nov-16 17:30N 40°45' E 029°16'713.6
2017-Nov-16 17:00N 40°45' E 029°25'612.4
2017-Nov-16 16:30N 40°45' E 029°33'4 0.1
2017-Nov-15 10:53N 40°45' E 029°28'513.8
2017-Nov-15 10:30N 40°44' E 029°21'612.5
2017-Nov-15 10:01N 40°44' E 029°13'918.0
2017-Nov-15 09:30N 40°43' E 029°01'23214.1
2017-Nov-14 17:01N 37°50' E 025°43'017.3
2017-Nov-14 17:00N 37°50' E 025°43'1019.3
2017-Nov-14 16:30N 37°40' E 025°43'917.2
2017-Nov-14 16:00N 37°32' E 025°46'918.7
2017-Nov-14 15:30N 37°26' E 025°55'  

Dump ship's entire track history